Time;durP1;ratioP1;P1;durP2;ratioP2;P2;SDS_P1;SDS_P2;PMS_P1;PMS_P2;Temp;Humidity;BMP_temperature;BMP_pressure;BME280_temperature;BME280_humidity;BME280_pressure;Samples;Min_cycle;Max_cycle;Signal;HPM_P1;HPM_P2
2022/01/22 00:00:34;;;;;;;5.25;2.85;;;6.20;93.30;;;;;;5068325;28;20533;-67
2022/01/22 00:03:01;;;;;;;3.85;3.15;;;6.20;93.30;;;;;;5065595;28;20064;-67
2022/01/22 00:05:27;;;;;;;4.95;3.20;;;6.30;93.40;;;;;;5077571;28;20896;-72
2022/01/22 00:07:53;;;;;;;3.90;2.88;;;6.30;93.30;;;;;;5072771;28;20122;-71
2022/01/22 00:10:22;;;;;;;3.65;2.97;;;6.30;93.80;;;;;;5068562;28;20045;-72
2022/01/22 00:15:16;;;;;;;4.03;3.10;;;6.20;93.40;;;;;;5074115;28;20047;-71
2022/01/22 00:17:43;;;;;;;3.60;2.78;;;6.20;93.40;;;;;;5069754;28;20079;-70
2022/01/22 00:20:11;;;;;;;3.47;2.92;;;6.20;93.40;;;;;;5072528;28;20059;-71
2022/01/22 00:22:37;;;;;;;5.03;2.50;;;6.30;93.40;;;;;;5088445;28;20020;-71
2022/01/22 00:25:08;;;;;;;3.85;2.72;;;6.30;93.40;;;;;;5072500;28;20056;-70
2022/01/22 00:27:38;;;;;;;4.07;2.80;;;6.30;93.50;;;;;;5064714;28;20059;-71
2022/01/22 00:30:07;;;;;;;3.47;2.65;;;6.30;93.40;;;;;;5074757;28;20040;-71
2022/01/22 00:32:34;;;;;;;3.58;2.75;;;6.30;93.50;;;;;;5069392;28;20032;-71
2022/01/22 00:35:00;;;;;;;3.28;2.38;;;6.30;93.50;;;;;;5068695;28;20039;-69
2022/01/22 00:37:26;;;;;;;3.05;2.50;;;6.40;93.50;;;;;;5085829;28;20029;-72
2022/01/22 00:39:52;;;;;;;4.85;2.67;;;6.40;93.50;;;;;;5068547;28;20020;-72
2022/01/22 00:42:17;;;;;;;3.03;2.22;;;6.40;93.50;;;;;;5065990;28;20530;-72
2022/01/22 00:44:44;;;;;;;4.45;2.67;;;6.40;93.60;;;;;;5072976;28;20490;-71
2022/01/22 00:47:10;;;;;;;3.63;2.58;;;6.40;93.50;;;;;;5072191;28;20049;-71
2022/01/22 00:49:37;;;;;;;4.30;2.50;;;6.50;93.50;;;;;;5070535;28;20713;-71
2022/01/22 00:52:04;;;;;;;3.15;2.45;;;6.40;93.30;;;;;;5085548;28;20032;-71
2022/01/22 00:54:31;;;;;;;2.83;2.25;;;6.50;93.40;;;;;;5071147;28;20163;-71
2022/01/22 00:56:57;;;;;;;3.58;2.53;;;6.50;93.50;;;;;;5066603;28;20500;-72
2022/01/22 00:59:23;;;;;;;4.07;3.00;;;6.50;93.60;;;;;;5069590;28;20028;-71
2022/01/22 01:01:49;;;;;;;3.05;2.30;;;6.50;93.60;;;;;;5073183;28;20062;-69
2022/01/22 01:04:14;;;;;;;3.53;2.55;;;6.50;93.40;;;;;;5082801;28;20090;-69
2022/01/22 01:06:41;;;;;;;3.25;2.17;;;6.60;93.40;;;;;;5075694;28;20439;-70
2022/01/22 01:09:09;;;;;;;2.72;2.20;;;6.50;93.10;;;;;;5071361;28;20031;-70
2022/01/22 01:11:41;;;;;;;3.70;2.70;;;6.50;93.30;;;;;;5065407;28;20064;-70
2022/01/22 01:14:10;;;;;;;3.20;2.28;;;6.50;93.30;;;;;;5071654;28;20043;-71
2022/01/22 01:33:07;;;;;;;6.30;3.60;;;6.50;93.60;;;;;;5075181;28;20120;-70
2022/01/22 01:35:37;;;;;;;5.03;2.95;;;6.50;93.60;;;;;;5063673;28;20036;-70
2022/01/22 01:38:04;;;;;;;4.68;2.88;;;6.50;93.70;;;;;;5072209;28;20028;-70
2022/01/22 01:40:31;;;;;;;3.47;2.55;;;6.50;93.70;;;;;;5080478;28;20047;-70
2022/01/22 01:45:23;;;;;;;5.13;3.40;;;6.50;93.50;;;;;;5087240;28;20412;-71
2022/01/22 01:48:03;;;;;;;5.07;3.35;;;6.50;93.50;;;;;;5069968;28;20049;-70
2022/01/22 01:50:34;;;;;;;5.53;3.53;;;6.50;93.60;;;;;;5064798;28;20121;-70
2022/01/22 01:53:10;;;;;;;5.18;3.05;;;6.50;93.60;;;;;;5072510;28;20056;-70
2022/01/22 01:57:27;;;;;;;5.88;3.00;;;6.50;93.70;;;;;;5082068;28;20131;-70
2022/01/22 01:58:30;;;;;;;4.25;2.97;;;6.50;93.70;;;;;;5065243;28;20028;-70
2022/01/22 02:01:00;;;;;;;3.85;2.83;;;6.50;93.70;;;;;;5076826;28;20025;-70
2022/01/22 02:03:27;;;;;;;4.35;3.08;;;6.50;93.60;;;;;;5065136;28;20586;-71
2022/01/22 02:06:05;;;;;;;3.08;2.25;;;6.50;93.60;;;;;;5077944;28;20020;-70
2022/01/22 02:08:33;;;;;;;3.85;2.75;;;6.50;93.50;;;;;;5071765;28;20039;-70
2022/01/22 02:11:04;;;;;;;4.32;2.33;;;6.40;93.70;;;;;;5070558;28;20024;-70
2022/01/22 02:25:15;;;;;;;1.60;1.48;;;6.20;93.50;;;;;;5090242;28;20123;-71
2022/01/22 02:27:41;;;;;;;1.65;1.10;;;6.10;93.50;;;;;;5066408;28;20028;-70
2022/01/22 02:30:17;;;;;;;2.15;1.50;;;6.10;93.30;;;;;;5069998;28;20039;-71
2022/01/22 02:36:01;;;;;;;1.90;1.52;;;6.00;93.30;;;;;;5078312;28;20060;-71
2022/01/22 02:38:45;;;;;;;1.65;1.52;;;5.90;93.20;;;;;;5075358;28;20028;-70
2022/01/22 02:41:16;;;;;;;2.50;1.50;;;5.80;93.50;;;;;;5073469;28;20033;-71
2022/01/22 02:43:42;;;;;;;2.60;1.50;;;5.70;93.40;;;;;;5066562;28;20024;-71
2022/01/22 02:46:08;;;;;;;2.90;1.88;;;5.70;93.40;;;;;;5069418;28;20598;-70
2022/01/22 02:48:34;;;;;;;2.65;1.73;;;5.60;93.50;;;;;;5062438;28;20036;-70
2022/01/22 02:51:00;;;;;;;1.88;1.55;;;5.60;93.40;;;;;;5069386;28;20038;-71
2022/01/22 02:53:27;;;;;;;3.67;2.00;;;5.60;93.30;;;;;;5073742;28;20340;-70
2022/01/22 02:55:54;;;;;;;2.78;1.88;;;5.70;93.30;;;;;;5066393;28;20033;-70
2022/01/22 02:58:20;;;;;;;1.58;1.40;;;5.70;93.20;;;;;;5064747;28;20571;-70
2022/01/22 03:00:47;;;;;;;2.63;1.90;;;5.80;93.30;;;;;;5070050;28;20033;-70
2022/01/22 03:03:14;;;;;;;2.90;2.00;;;5.70;93.30;;;;;;5063098;28;20039;-71
2022/01/22 03:05:40;;;;;;;2.88;1.90;;;5.70;93.20;;;;;;5070009;28;20051;-70
2022/01/22 03:08:09;;;;;;;2.25;1.60;;;5.60;93.30;;;;;;5073094;28;20377;-70
2022/01/22 03:10:36;;;;;;;3.33;2.20;;;5.60;93.40;;;;;;5067575;28;20492;-70
2022/01/22 03:13:55;;;;;;;2.53;1.70;;;5.60;93.40;;;;;;5083071;28;20063;-70
2022/01/22 03:21:11;;;;;;;2.33;1.73;;;5.70;93.40;;;;;;5086360;28;20020;-71
2022/01/22 03:29:11;;;;;;;2.75;1.80;;;5.60;93.50;;;;;;5069253;28;20120;-71
2022/01/22 03:31:38;;;;;;;2.50;1.70;;;5.60;93.40;;;;;;5082776;28;20460;-71
2022/01/22 03:34:04;;;;;;;2.83;1.75;;;5.60;93.40;;;;;;5066822;28;20032;-71
2022/01/22 03:36:33;;;;;;;2.28;1.60;;;5.50;93.30;;;;;;5069036;28;20025;-70
2022/01/22 03:39:09;;;;;;;3.00;1.70;;;5.50;93.40;;;;;;5071168;28;20772;-71
2022/01/22 03:41:35;;;;;;;3.05;1.77;;;5.50;93.40;;;;;;5061654;28;20039;-71
2022/01/22 03:44:04;;;;;;;2.33;2.00;;;5.50;93.40;;;;;;5066628;28;20510;-71
2022/01/22 03:46:30;;;;;;;2.70;1.80;;;5.50;93.30;;;;;;5064732;28;20032;-71
2022/01/22 03:48:57;;;;;;;2.92;1.80;;;5.50;93.30;;;;;;5060711;28;20024;-71
2022/01/22 03:51:23;;;;;;;2.95;1.75;;;5.60;93.20;;;;;;5065272;28;20027;-71
2022/01/22 03:53:49;;;;;;;2.38;1.58;;;5.50;93.20;;;;;;5070613;28;20036;-71
2022/01/22 03:56:16;;;;;;;1.50;1.20;;;5.60;93.20;;;;;;5060720;28;20036;-70
2022/01/22 03:59:02;;;;;;;2.08;1.40;;;5.60;93.10;;;;;;5075083;28;20044;-71
2022/01/22 04:04:40;;;;;;;4.80;2.35;;;5.60;93.00;;;;;;5052797;28;20476;-71
2022/01/22 04:09:54;;;;;;;2.17;1.30;;;5.50;93.20;;;;;;5072469;28;20039;-71
2022/01/22 04:12:27;;;;;;;2.20;1.40;;;5.50;93.20;;;;;;5061682;28;20029;-71
2022/01/22 04:14:59;;;;;;;2.08;1.70;;;5.50;93.10;;;;;;5073781;28;20040;-71
2022/01/22 04:24:48;;;;;;;4.07;1.95;;;5.50;93.10;;;;;;5083924;28;20032;-71
2022/01/22 04:25:45;;;;;;;3.25;1.67;;;5.20;93.00;;;;;;5078619;28;20032;-71
2022/01/22 04:28:12;;;;;;;2.05;1.42;;;5.10;92.90;;;;;;5068202;28;20039;-71
2022/01/22 04:30:38;;;;;;;1.95;1.55;;;5.00;92.90;;;;;;5067866;28;20025;-71
2022/01/22 04:33:05;;;;;;;2.50;1.55;;;4.80;92.80;;;;;;5086962;28;20032;-71
2022/01/22 04:35:32;;;;;;;2.28;1.52;;;4.70;92.80;;;;;;5064446;28;20031;-71
2022/01/22 04:37:58;;;;;;;4.75;1.73;;;4.60;92.90;;;;;;5083403;28;20956;-71
2022/01/22 04:40:24;;;;;;;2.88;1.83;;;4.60;93.00;;;;;;5078664;28;20719;-71
2022/01/22 04:42:49;;;;;;;2.28;1.58;;;4.50;93.00;;;;;;5066245;28;20115;-71
2022/01/22 04:45:26;;;;;;;2.85;1.70;;;4.40;93.00;;;;;;5073022;28;20032;-72
2022/01/22 04:55:47;;;;;;;4.00;2.45;;;4.00;93.20;;;;;;5077400;28;20024;-71
2022/01/22 04:58:13;;;;;;;3.58;1.98;;;3.90;93.30;;;;;;5072889;28;20093;-71
2022/01/22 05:00:42;;;;;;;5.65;2.63;;;3.90;93.40;;;;;;5074333;28;20055;-71
2022/01/22 05:03:09;;;;;;;4.75;2.30;;;3.90;93.40;;;;;;5068621;28;20075;-71
2022/01/22 05:06:00;;;;;;;3.25;2.42;;;3.80;93.40;;;;;;5070583;28;20077;-71
2022/01/22 05:08:30;;;;;;;5.22;2.60;;;3.70;93.70;;;;;;5071373;28;20024;-71
2022/01/22 05:11:03;;;;;;;4.05;2.47;;;3.70;93.80;;;;;;5064408;28;20081;-71
2022/01/22 05:13:28;;;;;;;3.08;2.22;;;3.70;93.70;;;;;;5076443;28;20036;-71
2022/01/22 05:15:54;;;;;;;6.90;2.80;;;3.70;93.70;;;;;;5077077;28;20066;-71
2022/01/22 05:18:20;;;;;;;4.35;2.53;;;3.70;93.70;;;;;;5060313;28;20024;-71
2022/01/22 05:20:54;;;;;;;3.15;1.92;;;3.60;93.80;;;;;;5078866;28;20703;-71
2022/01/22 05:23:23;;;;;;;3.22;2.15;;;3.60;93.90;;;;;;5086377;28;20625;-71
2022/01/22 05:25:55;;;;;;;6.55;2.50;;;3.60;93.90;;;;;;5080612;28;20028;-71
2022/01/22 05:37:04;;;;;;;4.70;2.30;;;3.60;94.00;;;;;;5088616;28;20031;-71
2022/01/22 05:39:32;;;;;;;3.03;1.95;;;3.60;94.20;;;;;;5066214;28;20031;-71
2022/01/22 05:42:00;;;;;;;4.03;2.05;;;3.60;94.00;;;;;;5065149;28;20024;-71
2022/01/22 05:44:27;;;;;;;4.53;2.25;;;3.60;93.90;;;;;;5070458;28;20044;-71
2022/01/22 05:46:56;;;;;;;3.83;2.40;;;3.60;93.80;;;;;;5066456;28;20031;-71
2022/01/22 05:49:24;;;;;;;5.35;2.05;;;3.50;93.80;;;;;;5065637;28;20068;-71
2022/01/22 05:51:52;;;;;;;2.90;2.00;;;3.50;93.80;;;;;;5086335;28;20042;-71
2022/01/22 05:54:45;;;;;;;4.43;2.17;;;3.50;93.90;;;;;;5072823;28;20111;-70
2022/01/22 05:59:48;;;;;;;4.18;2.38;;;3.70;94.00;;;;;;5072551;28;20029;-71
2022/01/22 06:02:17;;;;;;;3.88;2.30;;;3.80;94.00;;;;;;5068180;28;20098;-71
2022/01/22 06:04:49;;;;;;;7.30;2.80;;;3.80;94.00;;;;;;5079413;28;20628;-71
2022/01/22 06:07:18;;;;;;;3.95;2.00;;;3.90;94.00;;;;;;5066932;28;20407;-71
2022/01/22 06:09:55;;;;;;;4.45;2.20;;;4.00;93.90;;;;;;5071335;28;20392;-71
2022/01/22 06:12:40;;;;;;;4.13;2.15;;;4.00;93.80;;;;;;5080218;28;20036;-71
2022/01/22 06:15:06;;;;;;;5.43;2.30;;;4.10;93.80;;;;;;5077410;28;20028;-71
2022/01/22 06:17:41;;;;;;;4.00;2.38;;;4.10;93.90;;;;;;5071197;28;20020;-71
2022/01/22 06:20:13;;;;;;;5.30;2.25;;;4.10;93.90;;;;;;5068516;28;20471;-71
2022/01/22 06:22:40;;;;;;;3.00;2.03;;;4.10;93.90;;;;;;5076855;28;20028;-71
2022/01/22 06:25:07;;;;;;;4.70;2.38;;;4.20;93.80;;;;;;5075598;28;20115;-71
2022/01/22 06:27:33;;;;;;;4.20;2.10;;;4.20;93.80;;;;;;5070608;28;20561;-71
2022/01/22 06:29:58;;;;;;;3.13;1.70;;;4.20;93.80;;;;;;5071868;28;20131;-71
2022/01/22 06:32:26;;;;;;;2.97;1.85;;;4.20;93.80;;;;;;5067249;28;20450;-71
2022/01/22 06:34:51;;;;;;;4.72;2.28;;;4.20;93.70;;;;;;5071196;28;20028;-71
2022/01/22 06:37:17;;;;;;;4.50;2.20;;;4.30;93.60;;;;;;5071270;28;20486;-71
2022/01/22 06:42:47;;;;;;;4.50;2.30;;;4.20;93.60;;;;;;5070245;28;20052;-71
2022/01/22 06:45:18;;;;;;;3.90;2.05;;;4.10;93.60;;;;;;5072974;28;20028;-71
2022/01/22 06:47:52;;;;;;;5.30;2.13;;;4.00;93.60;;;;;;5071023;28;20040;-71
2022/01/22 06:50:25;;;;;;;4.07;2.20;;;4.00;93.60;;;;;;5068554;28;20047;-71
2022/01/22 06:53:02;;;;;;;6.43;1.95;;;3.90;93.40;;;;;;5059453;28;20024;-71
2022/01/22 06:55:43;;;;;;;6.07;2.78;;;3.90;93.40;;;;;;5078219;28;20039;-72
2022/01/22 06:58:11;;;;;;;3.65;2.03;;;3.80;93.40;;;;;;5070417;28;20028;-71
2022/01/22 07:00:41;;;;;;;4.93;2.70;;;3.80;93.40;;;;;;5071389;28;20117;-71
2022/01/22 07:03:27;;;;;;;5.05;3.45;;;3.80;93.40;;;;;;5066866;28;20037;-71
2022/01/22 07:06:19;;;;;;;7.32;2.90;;;3.80;93.40;;;;;;5066340;28;20061;-71
2022/01/22 07:08:45;;;;;;;4.00;2.47;;;3.80;93.50;;;;;;5076535;28;20040;-71
2022/01/22 07:11:16;;;;;;;5.60;2.75;;;3.80;93.30;;;;;;5075610;28;20040;-71
2022/01/22 07:13:44;;;;;;;5.15;3.45;;;3.80;93.30;;;;;;5082476;28;20131;-70
2022/01/22 07:16:10;;;;;;;4.55;2.88;;;3.90;93.40;;;;;;5067939;28;20106;-72
2022/01/22 07:18:37;;;;;;;4.25;2.60;;;3.90;93.50;;;;;;5066216;28;20020;-72
2022/01/22 07:21:13;;;;;;;6.38;3.15;;;3.90;93.50;;;;;;5066327;28;20059;-72
2022/01/22 07:24:07;;;;;;;;;;;4.00;93.60;;;;;;5077018;28;20031;-70
2022/01/22 07:26:31;;;;;;;5.75;3.08;;;4.00;93.50;;;;;;5083813;28;19912;-70
2022/01/22 07:28:59;;;;;;;5.63;3.03;;;4.10;93.60;;;;;;5070363;28;20046;-71
2022/01/22 07:31:27;;;;;;;4.82;2.67;;;4.10;93.50;;;;;;5073483;28;20032;-71
2022/01/22 07:33:56;;;;;;;8.77;3.17;;;4.10;93.60;;;;;;5074746;28;20574;-70
2022/01/22 07:36:22;;;;;;;6.45;2.67;;;4.10;93.60;;;;;;5071301;28;20029;-71
2022/01/22 07:38:48;;;;;;;5.85;3.05;;;4.20;93.60;;;;;;5070055;28;20545;-71
2022/01/22 07:41:14;;;;;;;4.75;3.40;;;4.30;93.50;;;;;;5059945;28;20028;-72
2022/01/22 07:43:49;;;;;;;5.70;3.13;;;4.30;93.60;;;;;;5068123;28;20036;-70
2022/01/22 07:46:43;;;;;;;6.85;3.20;;;4.40;93.50;;;;;;5080777;28;20043;-72
2022/01/22 07:49:20;;;;;;;6.40;2.90;;;4.50;93.40;;;;;;5069869;28;20111;-75
2022/01/22 07:51:48;;;;;;;9.25;2.95;;;4.60;93.40;;;;;;5077439;28;20491;-72
2022/01/22 07:54:14;;;;;;;8.40;3.75;;;4.60;93.20;;;;;;5081093;28;20048;-68
2022/01/22 07:56:40;;;;;;;7.25;3.47;;;4.60;93.20;;;;;;5066002;28;20020;-72
2022/01/22 07:59:06;;;;;;;5.63;3.10;;;4.70;93.20;;;;;;5069844;28;20023;-72
2022/01/22 08:01:37;;;;;;;6.70;3.30;;;4.70;93.20;;;;;;5063635;28;20020;-73
2022/01/22 08:04:24;;;;;;;9.80;3.47;;;4.80;93.20;;;;;;5072636;28;20047;-72
2022/01/22 08:07:23;;;;;;;3.78;2.80;;;4.90;93.10;;;;;;5057075;28;20070;-73
2022/01/22 08:10:24;;;;;;;8.00;3.50;;;4.90;93.30;;;;;;5078125;28;20047;-73
2022/01/22 08:12:51;;;;;;;8.48;3.15;;;5.00;93.10;;;;;;5077042;28;20680;-72
2022/01/22 08:15:18;;;;;;;3.58;2.58;;;5.10;93.00;;;;;;5061831;28;20028;-74
2022/01/22 08:17:44;;;;;;;4.72;2.58;;;5.20;93.00;;;;;;5071611;28;20508;-73
2022/01/22 08:20:13;;;;;;;4.55;3.00;;;5.20;92.90;;;;;;5067325;28;20384;-73
2022/01/22 08:23:02;;;;;;;6.60;2.83;;;5.40;92.80;;;;;;5063492;28;20036;-71
2022/01/22 08:25:31;;;;;;;4.13;2.85;;;5.50;92.70;;;;;;5069623;28;20036;-72
2022/01/22 08:30:35;;;;;;;5.40;2.80;;;5.70;92.60;;;;;;5085453;28;20154;-74
2022/01/22 08:33:30;;;;;;;4.75;2.90;;;5.80;92.50;;;;;;5078764;28;20381;-72
2022/01/22 08:35:53;;;;;;;6.85;3.08;;;5.80;92.40;;;;;;5076495;28;20839;-75
2022/01/22 08:38:28;;;;;;;7.28;3.45;;;5.90;92.30;;;;;;5072457;28;20040;-75
2022/01/22 08:40:55;;;;;;;4.63;3.20;;;5.90;92.20;;;;;;5076563;28;20589;-74
2022/01/22 08:43:23;;;;;;;4.85;3.00;;;6.00;92.20;;;;;;5074383;28;20041;-75
2022/01/22 08:45:50;;;;;;;6.40;3.60;;;6.00;92.20;;;;;;5074219;28;20032;-76
2022/01/22 08:48:20;;;;;;;9.32;3.88;;;6.10;92.10;;;;;;5072255;28;20036;-74
2022/01/22 08:50:54;;;;;;;7.65;3.78;;;6.10;91.90;;;;;;5077270;28;20024;-74
2022/01/22 08:53:20;;;;;;;7.15;3.63;;;6.10;91.70;;;;;;5076172;28;20141;-73
2022/01/22 08:55:45;;;;;;;9.82;3.80;;;6.00;91.70;;;;;;5069110;28;20132;-72
2022/01/22 08:58:13;;;;;;;6.38;4.00;;;6.00;91.60;;;;;;5072101;28;20043;-75
2022/01/22 09:00:48;;;;;;;6.90;3.38;;;6.00;91.60;;;;;;5074095;28;20024;-74
2022/01/22 09:03:21;;;;;;;6.03;3.75;;;6.00;91.30;;;;;;5066749;28;20723;-74
2022/01/22 09:06:06;;;;;;;8.50;3.88;;;6.00;91.20;;;;;;5076752;28;20047;-73
2022/01/22 09:09:04;;;;;;;9.57;3.50;;;6.00;91.40;;;;;;5065677;28;20032;-75
2022/01/22 09:11:46;;;;;;;5.55;3.50;;;6.00;91.40;;;;;;5086986;28;20031;-74
2022/01/22 09:14:32;;;;;;;12.73;4.28;;;6.00;91.50;;;;;;5073473;28;20408;-74
2022/01/22 09:16:59;;;;;;;5.82;3.90;;;6.10;91.50;;;;;;5078013;28;20031;-76
2022/01/22 09:19:32;;;;;;;7.45;3.80;;;6.20;91.50;;;;;;5083010;28;20789;-75
2022/01/22 09:22:01;;;;;;;5.53;3.22;;;6.30;91.50;;;;;;5074655;28;20324;-68
2022/01/22 09:24:27;;;;;;;9.18;3.50;;;6.40;91.40;;;;;;5069843;28;20036;-76
2022/01/22 09:26:55;;;;;;;8.98;3.45;;;6.50;91.10;;;;;;5061574;28;20137;-73
2022/01/22 09:29:23;;;;;;;5.20;3.08;;;6.60;91.00;;;;;;5071094;28;20108;-75
2022/01/22 09:31:49;;;;;;;6.35;2.67;;;6.70;90.80;;;;;;5062087;28;20484;-74
2022/01/22 09:34:35;;;;;;;6.30;2.47;;;6.80;90.50;;;;;;5075193;28;20040;-75
2022/01/22 09:37:25;;;;;;;5.43;2.67;;;6.90;89.70;;;;;;5065598;28;20291;-75
2022/01/22 09:40:05;;;;;;;11.45;3.15;;;7.10;89.10;;;;;;5067383;28;20063;-75
2022/01/22 09:43:03;;;;;;;11.27;4.00;;;7.20;88.10;;;;;;5048821;28;20491;-74
2022/01/22 09:45:40;;;;;;;6.43;2.88;;;7.20;87.40;;;;;;5088642;28;20032;-77
2022/01/22 09:48:29;;;;;;;7.38;3.17;;;7.20;87.40;;;;;;5065009;28;20048;-71
2022/01/22 09:51:08;;;;;;;7.05;2.80;;;7.20;87.20;;;;;;5067091;28;20450;-72
2022/01/22 09:53:36;;;;;;;4.45;2.60;;;7.20;86.70;;;;;;5074358;28;20028;-68
2022/01/22 09:56:25;;;;;;;9.93;3.22;;;7.30;86.70;;;;;;5070670;28;20801;-68
2022/01/22 09:59:10;;;;;;;3.65;2.35;;;7.30;86.10;;;;;;5088538;28;20438;-69
2022/01/22 10:02:22;;;;;;;2.97;2.03;;;7.40;86.10;;;;;;5075917;28;20059;-69
2022/01/22 10:04:49;;;;;;;5.13;2.33;;;7.50;86.00;;;;;;5055272;28;20590;-69
2022/01/22 10:07:36;;;;;;;9.05;3.05;;;7.60;86.30;;;;;;5071421;28;20089;-69
2022/01/22 10:10:07;;;;;;;5.63;2.72;;;7.80;86.00;;;;;;5072920;28;20032;-69
2022/01/22 10:12:57;;;;;;;6.28;3.33;;;8.00;84.70;;;;;;5073244;28;20567;-69
2022/01/22 10:15:35;;;;;;;7.38;2.85;;;8.10;82.90;;;;;;5071004;28;20056;-69
2022/01/22 10:18:03;;;;;;;4.88;2.67;;;8.10;80.80;;;;;;5068603;28;20111;-69
2022/01/22 10:20:32;;;;;;;11.20;3.47;;;8.00;81.10;;;;;;5087641;28;20028;-69
2022/01/22 10:23:02;;;;;;;4.60;2.13;;;7.90;82.00;;;;;;5073134;28;20061;-69
2022/01/22 10:25:44;;;;;;;6.55;2.85;;;7.90;78.90;;;;;;5075249;28;20032;-69
2022/01/22 10:28:19;;;;;;;3.92;1.90;;;7.70;79.60;;;;;;5075251;28;20133;-69
2022/01/22 10:30:46;;;;;;;5.07;2.25;;;7.60;80.70;;;;;;5076184;28;20629;-69
2022/01/22 10:36:15;;;;;;;4.28;3.28;;;7.60;81.30;;;;;;5070970;28;20549;-73
2022/01/22 10:39:08;;;;;;;9.15;2.65;;;7.60;80.50;;;;;;5086491;28;20115;-74
2022/01/22 10:41:42;;;;;;;4.88;2.58;;;7.70;80.60;;;;;;5069838;28;20024;-75
2022/01/22 10:44:21;;;;;;;6.72;1.83;;;7.80;81.80;;;;;;5083597;28;20039;-77
2022/01/22 10:46:50;;;;;;;8.25;3.88;;;7.90;80.90;;;;;;5072689;28;20040;-76
2022/01/22 10:49:22;;;;;;;21.42;7.63;;;8.00;78.90;;;;;;5067533;28;20074;-76
2022/01/22 10:51:52;;;;;;;16.13;5.97;;;8.10;78.50;;;;;;5073354;28;20050;-76
2022/01/22 10:54:24;;;;;;;16.85;6.40;;;8.10;78.60;;;;;;5069034;28;20036;-75
2022/01/22 10:56:51;;;;;;;17.67;7.47;;;8.10;80.30;;;;;;5070011;28;20081;-75
2022/01/22 10:59:19;;;;;;;14.60;6.10;;;8.20;80.00;;;;;;5069331;28;20035;-75
2022/01/22 11:01:59;;;;;;;10.90;4.47;;;8.30;79.30;;;;;;5088066;28;20021;-75
2022/01/22 11:04:30;;;;;;;6.85;3.50;;;8.30;79.40;;;;;;5072879;28;20040;-75
2022/01/22 11:06:56;;;;;;;9.98;3.28;;;8.30;79.10;;;;;;5070698;28;20126;-75
2022/01/22 11:09:24;;;;;;;4.15;2.58;;;8.30;79.70;;;;;;5070901;28;20035;-76
2022/01/22 11:11:51;;;;;;;11.10;4.15;;;8.30;79.70;;;;;;5073968;28;20074;-76
2022/01/22 11:14:17;;;;;;;9.40;3.50;;;8.10;79.60;;;;;;5071514;28;20831;-76
2022/01/22 11:16:45;;;;;;;4.75;2.40;;;8.10;79.70;;;;;;5071269;28;20151;-76
2022/01/22 11:19:14;;;;;;;5.93;2.30;;;8.00;78.30;;;;;;5067467;28;20452;-75
2022/01/22 11:21:44;;;;;;;4.05;2.25;;;7.80;77.70;;;;;;5070474;28;20035;-75
2022/01/22 11:24:16;;;;;;;4.93;3.00;;;7.70;79.40;;;;;;5075767;28;20044;-76
2022/01/22 11:26:46;;;;;;;5.78;3.40;;;7.60;80.20;;;;;;5067750;28;20538;-73
2022/01/22 11:29:14;;;;;;;8.38;2.55;;;7.50;80.30;;;;;;5069807;28;20535;-72
2022/01/22 11:31:42;;;;;;;9.55;3.67;;;7.50;79.20;;;;;;5082020;28;20031;-73
2022/01/22 11:34:08;;;;;;;5.82;2.60;;;7.50;80.60;;;;;;5073056;28;20510;-74
2022/01/22 11:36:42;;;;;;;4.95;2.65;;;7.40;79.90;;;;;;5074362;28;20044;-73
2022/01/22 11:39:19;;;;;;;10.07;2.88;;;7.40;81.00;;;;;;5074022;28;20029;-73
2022/01/22 11:41:59;;;;;;;7.55;2.90;;;7.40;81.40;;;;;;5082591;28;20033;-73
2022/01/22 11:44:28;;;;;;;6.97;3.25;;;7.40;81.00;;;;;;5075230;28;20059;-73
2022/01/22 11:47:17;;;;;;;11.15;3.83;;;7.40;81.20;;;;;;5076926;28;20072;-73
2022/01/22 11:50:04;;;;;;;18.30;6.30;;;7.40;80.70;;;;;;5085132;28;20035;-73
2022/01/22 11:52:33;;;;;;;17.48;5.18;;;7.50;81.00;;;;;;5075147;28;20740;-73
2022/01/22 11:55:01;;;;;;;8.20;3.72;;;7.50;80.60;;;;;;5072408;28;20135;-74
2022/01/22 11:57:32;;;;;;;7.40;2.97;;;7.50;80.60;;;;;;5071061;28;20043;-73
2022/01/22 12:00:26;;;;;;;5.40;3.25;;;7.50;81.20;;;;;;5076072;28;20111;-73
2022/01/22 12:03:07;;;;;;;10.75;4.72;;;7.50;81.40;;;;;;5074536;28;20047;-73
2022/01/22 12:05:52;;;;;;;11.05;4.57;;;7.50;81.50;;;;;;5075641;28;20032;-73
2022/01/22 12:08:18;;;;;;;8.80;3.50;;;7.50;81.70;;;;;;5075008;28;20056;-73
2022/01/22 12:14:26;;;;;;;7.60;3.00;;;7.60;81.60;;;;;;5073352;28;20748;-74
2022/01/22 12:16:42;;;;;;;9.48;2.97;;;7.60;80.30;;;;;;5076934;28;20046;-74
2022/01/22 12:20:16;;;;;;;8.70;3.70;;;7.60;80.50;;;;;;5075143;28;20043;-73
2022/01/22 12:22:38;;;;;;;8.45;3.85;;;7.50;80.20;;;;;;5077904;28;20056;-73
2022/01/22 12:25:07;;;;;;;6.88;3.97;;;7.40;81.00;;;;;;5072372;28;20491;-73
2022/01/22 12:27:53;;;;;;;9.98;2.92;;;7.40;81.20;;;;;;5075552;28;20033;-68
2022/01/22 12:30:40;;;;;;;10.13;4.03;;;7.30;81.90;;;;;;5083926;28;20051;-68
2022/01/22 12:33:10;;;;;;;8.10;3.45;;;7.40;81.90;;;;;;5079468;28;20634;-70
2022/01/22 12:35:47;;;;;;;8.02;2.88;;;7.30;81.10;;;;;;5073037;28;20036;-74
2022/01/22 12:38:28;;;;;;;6.90;3.22;;;7.40;81.20;;;;;;5075482;28;20029;-74
2022/01/22 12:40:59;;;;;;;10.15;3.10;;;7.30;79.20;;;;;;5073881;28;20028;-74
2022/01/22 12:43:37;;;;;;;9.05;2.97;;;7.30;79.60;;;;;;5078736;28;20496;-74
2022/01/22 12:46:04;;;;;;;9.85;3.35;;;7.20;80.30;;;;;;5074939;28;20764;-74
2022/01/22 12:48:35;;;;;;;3.83;2.70;;;7.20;80.40;;;;;;5075165;28;20811;-74
2022/01/22 12:51:07;;;;;;;7.15;3.28;;;7.10;80.40;;;;;;5074714;28;20042;-73
2022/01/22 12:53:34;;;;;;;6.88;2.90;;;7.00;81.00;;;;;;5088322;28;20101;-71
2022/01/22 12:58:39;;;;;;;8.48;3.10;;;7.00;80.50;;;;;;5084966;28;20432;-72
2022/01/22 13:01:16;;;;;;;6.57;3.30;;;7.00;81.40;;;;;;5072568;28;20046;-73
2022/01/22 13:03:48;;;;;;;12.05;4.00;;;6.90;82.10;;;;;;5070061;28;20016;-74
2022/01/22 13:06:15;;;;;;;6.72;3.65;;;7.00;80.80;;;;;;5068377;28;20036;-74
2022/01/22 13:08:59;;;;;;;6.30;3.30;;;6.90;79.60;;;;;;5071524;28;20027;-73
2022/01/22 13:11:45;;;;;;;8.68;3.90;;;7.00;81.20;;;;;;5077093;28;20032;-73
2022/01/22 13:14:12;;;;;;;8.55;3.63;;;7.10;81.70;;;;;;5072008;28;20121;-73
2022/01/22 13:16:49;;;;;;;9.00;3.75;;;7.10;80.60;;;;;;5085014;28;20056;-74
2022/01/22 13:19:15;;;;;;;6.43;3.03;;;7.20;81.30;;;;;;5058482;28;20134;-73
2022/01/22 13:21:52;;;;;;;11.10;3.60;;;7.30;81.00;;;;;;5077352;28;20016;-73
2022/01/22 13:24:23;;;;;;;7.50;3.08;;;7.30;80.20;;;;;;5080326;28;20034;-73
2022/01/22 13:27:11;;;;;;;5.00;3.05;;;7.30;80.30;;;;;;5081825;28;20036;-73
2022/01/22 13:29:52;;;;;;;8.10;3.47;;;7.40;80.30;;;;;;5079035;28;20032;-73
2022/01/22 13:32:41;;;;;;;9.32;3.20;;;7.30;80.60;;;;;;5078130;28;20085;-73
2022/01/22 13:35:19;;;;;;;15.30;3.20;;;7.20;79.20;;;;;;5080174;28;20032;-73
2022/01/22 13:48:56;;;;;;;8.45;3.42;;;7.20;79.60;;;;;;5075045;28;20035;-73
2022/01/22 13:51:22;;;;;;;7.30;2.95;;;7.30;79.80;;;;;;5078545;28;20094;-74
2022/01/22 13:53:48;;;;;;;6.80;2.63;;;7.30;80.00;;;;;;5079588;28;20032;-73
2022/01/22 13:56:16;;;;;;;6.53;3.00;;;7.40;79.00;;;;;;5081547;28;20032;-73
2022/01/22 13:58:42;;;;;;;4.28;2.35;;;7.40;79.30;;;;;;5077045;28;20042;-73
2022/01/22 14:01:42;;;;;;;6.72;2.40;;;7.40;79.00;;;;;;5066099;28;20028;-73
2022/01/22 14:04:10;;;;;;;3.72;2.22;;;7.40;78.90;;;;;;5090673;28;20025;-74
2022/01/22 14:06:36;;;;;;;7.05;2.95;;;7.40;79.00;;;;;;5082002;28;20019;-73
2022/01/22 14:09:16;;;;;;;8.00;3.17;;;7.40;79.20;;;;;;5076881;28;20024;-73
2022/01/22 14:12:03;;;;;;;8.43;4.03;;;7.40;79.80;;;;;;5090255;28;20028;-74
2022/01/22 14:14:32;;;;;;;7.88;4.38;;;7.30;80.80;;;;;;5083343;28;20029;-74
2022/01/22 14:17:10;;;;;;;9.80;4.60;;;7.30;81.10;;;;;;5075366;28;20073;-75
2022/01/22 14:19:35;;;;;;;9.40;6.05;;;7.30;81.50;;;;;;5077057;28;20024;-74
2022/01/22 14:22:01;;;;;;;12.40;5.85;;;7.30;82.00;;;;;;5083376;28;20053;-74
2022/01/22 14:24:31;;;;;;;13.45;5.97;;;7.30;82.30;;;;;;5073893;28;20040;-74
2022/01/22 14:26:57;;;;;;;15.55;7.78;;;7.20;82.40;;;;;;5084629;28;20060;-72
2022/01/22 14:29:23;;;;;;;14.68;8.02;;;7.20;82.80;;;;;;5077121;28;20068;-74
2022/01/22 14:31:50;;;;;;;18.23;7.72;;;7.10;83.20;;;;;;5079209;28;20032;-74
2022/01/22 14:34:43;;;;;;;14.68;7.35;;;7.00;82.70;;;;;;5079268;28;20036;-74
2022/01/22 14:37:28;;;;;;;11.02;6.30;;;7.00;83.00;;;;;;5076501;28;20044;-74
2022/01/22 14:45:23;;;;;;;9.88;5.30;;;6.70;84.00;;;;;;5080974;28;20127;-74
2022/01/22 14:47:54;;;;;;;9.65;6.22;;;6.60;84.30;;;;;;5078259;28;20147;-74
2022/01/22 14:50:21;;;;;;;16.38;6.82;;;6.60;84.90;;;;;;5081024;28;20060;-74
2022/01/22 14:52:49;;;;;;;12.10;6.80;;;6.50;84.90;;;;;;5080970;28;20797;-73
2022/01/22 14:55:15;;;;;;;11.20;5.75;;;6.50;85.20;;;;;;5074333;28;20036;-73
2022/01/22 14:57:42;;;;;;;7.57;5.03;;;6.40;85.10;;;;;;5074912;28;20019;-73
2022/01/22 15:00:14;;;;;;;9.02;5.13;;;6.40;85.20;;;;;;5054207;28;20484;-73
2022/01/22 15:02:40;;;;;;;6.38;4.15;;;6.30;85.50;;;;;;5081546;28;20032;-73
2022/01/22 15:05:08;;;;;;;9.25;5.45;;;6.20;86.70;;;;;;5079786;28;20036;-74
2022/01/22 15:07:35;;;;;;;7.40;4.53;;;6.20;86.20;;;;;;5079886;28;20064;-74
2022/01/22 15:10:05;;;;;;;10.73;5.43;;;6.20;86.50;;;;;;5067766;28;20024;-75